Alexander, IL

3:13 AM CDT on October 31, 2014 (GMT -0500)
Smith Farms | Change Station
CLOSE
Current Station
Personal Weather Station
Location: New Berlin, IL
Elevation: 656 ft
Nearby Weather Stations
Active Advisory: Freeze Warning

Elev 656 ft 39.72 °N, 89.92 °W | Updated 1 minute ago

Overcast
Overcast
43.9 °F
Feels Like 38 °F
N
10.4
Wind Variable Wind from NNW

Today
High -- | Low -- °F
--% Chance of Precip.
Yesterday
High -- | Low -- °F
Precip. -- in
7:27 AM 5:59 PM
First Quarter, 53% visible
Pressure 30.11 in
Visibility 7.0 miles
Clouds Overcast 7000 ft
Windchill 38 °F
Dew Point 41 °F
Humidity 89%
Rainfall 0.00 in
Snow Depth Not available.
UV 0 out of 12
Pollen .30 out of 12
Air Quality Not available.
Flu Activity Not available.
METAR KIJX 310755Z AUTO 33007KT 7SM -DZ OVC070 08/07 A3011 RMK AO2 T00810065

More Conditions Fewer Conditions

Pressure 30.11 in
Visibility 7.0 miles
Clouds Overcast 7000 ft
Windchill 38 °F
Dew Point 41 °F
Humidity 89%
Rainfall 0.00 in
Snow Depth Not available.
UV 0 out of 12
Pollen .30 out of 12
Air Quality Not available.
Flu Activity Not available.
METAR KIJX 310755Z AUTO 33007KT 7SM -DZ OVC070 08/07 A3011 RMK AO2 T00810065

More Conditions Fewer Conditions

10-Day Weather Forecast

Almanac

Astronomy

Oct. 31, 2014 Rise Set
Actual Time
Civil Twilight
Nautical Twilight
Astronomical Twilight
Moon
Length of Visible Light
Length of Day
Tomorrow will be .
, % of the Moon is Illuminated

Today's Extremes

State Highs State Lows

Community

WunderPhotos

Upload Photos

1,766,573 photos uploaded!

WunderBlogs® & News

Nearby

Air Quality

  Air Quality AQ Index Pollutant
Not available.

Snow Depth

Station Depth Elevation

Earthquake Activity

City Distance Mag. Time & Date
Minimum magnitude displayed is 2.5.

Coastal Water Temperatures

Place Temperature

Nearby Weather Stations